Nullo Mountains, Australia
Current Conditions -  °F | °C
As of 8:00 PM on Sunday 23 Nov 2014 (Local Time) from YMDG Reporting Station
Scattered Clouds Scattered Clouds  
Wind Chill: 91°   Ceiling: Unl
Heat Index: 91°   Visibility: NA
Dew Point: 50°   Wind: 10mph
Humidity: 24%   Direction: 150°SSE
Pressure: 29.88"   Gusts: NA
Location:  32.72°S, 150.23°E
Report Text: YMDG 230900Z AUTO 15009KT //// // SCT100 33/10 Q1012
Loading
Personal Weather Stations






























Interactive Weather Map New forecast layout! Learn more

10-Day Weather Forecast

Advertisements
Track Severe Weather on mobile